x

South Santa Rosa Is. Ca (46069) Wave Buoy

1:50am - Mon 29th Dec 2014 All times are PST. -8 hours from GMT.

  • Sig Wave height 6.6ft
  • Peak Period 14s
  • Average Period 6s
  • Wind
    25mph, 29mph gusts
  • Sea Temp 59°f
  • Air Temp 58°f
  • Sea Pressure 1019.9mb
  • South Santa Rosa Is. Ca
  • South Santa Rosa Is. Ca

More Historic Weather Station data

Upgrade to MSW Pro to gain access to the past 30 days of data for over 8000 Wavebouys and Weather Stations around the globe.

Join Pro

Comparision Forecast

View Surf forecast
   
Mon 12/29 1:50am 6.5ft 14s 6s 25 29 mph 1019.9mb 59f 58f
12:50am 6ft 14s 6s 22 27 mph 1020.3mb 59f 59f
Sun 12/28 11:50pm 6ft 14s 6s 25 29 mph 1020.5mb 59f 59f
10:50pm 6ft 15s 6s 20 25 mph 1021.3mb 59f 59f
9:50pm 5.5ft 14s 6s 20 25 mph 1021.8mb 59f 59f
8:50pm 4.5ft 16s 5s 18 22 mph 1022.3mb 59f 58f
7:50pm 5ft 15s 6s 20 25 mph 1021.9mb 59f 58f
6:50pm 5ft 14s 5s 18 22 mph 1021.9mb 59f 58f
5:50pm 5ft 15s 5s 18 22 mph 1021.9mb 59f 58f
4:50pm 4.5ft 14s 5s 20 25 mph 1021.6mb 59f 58f
3:50pm 4.5ft 14s 6s 20 22 mph 1021.6mb 60f 58f
2:50pm 5ft 14s 6s 18 20 mph 1021.7mb 60f 58f
1:50pm 5ft 13s 7s 16 18 mph 1022.1mb 59f 58f
12:50pm 5.5ft 13s 7s 13 18 mph 1022.6mb 59f 57f
11:50am 5ft 12s 7s 16 18 mph 1023.4mb 59f 57f
10:50am 5.5ft 13s 8s 13 18 mph 1024.4mb 59f 57f
9:50am 5ft 13s 7s 13 16 mph 1024.8mb 59f 57f
8:50am 4.5ft 13s 7s 13 18 mph 1024.8mb 59f 57f
7:50am 5ft 13s 8s 11 13 mph 1024.2mb 59f 57f
6:50am 5ft 14s 8s 11 13 mph 1024.2mb 59f 57f
5:50am 4.5ft 12s 7s 11 13 mph 1024.1mb 59f 57f
3:50am 4.5ft 14s 8s 11 13 mph 1024.4mb 59f 57f
2:50am 4.5ft 15s 9s 9 11 mph 1025mb 59f 57f
1:50am 5ft 15s 9s 9 11 mph 1025.4mb 59f 58f
12:50am 4.5ft 15s 9s 7 9 mph 1025.7mb 59f 58f
Sat 12/27 11:50pm 4ft 16s 8s 7
mph
1026.3mb 59f 58f
10:50pm 4.5ft 9s 8s 4 7 mph 1026.8mb 59f 58f
9:50pm 4.5ft 15s 8s 4 7 mph 1027.2mb 59f 58f
8:50pm 4ft 11s 8s  -  2 mph 1027mb 59f 58f
7:50pm 4ft 10s 7s  -  2 mph 1026.8mb 59f 58f
6:50pm 4.5ft 11s 8s 4
mph
1026.5mb 60f 58f
5:50pm 4.5ft 11s 7s 4 7 mph 1026.2mb 60f 58f
4:50pm 4ft 10s 7s 4 7 mph 1025.9mb 60f 58f
3:50pm 4.5ft 11s 6s 7 9 mph 1025.8mb 60f 58f
2:50pm 4.5ft 12s 6s 9 11 mph 1025.3mb 59f 58f
1:50pm 5ft 12s 7s 11 13 mph 1025.5mb 59f 58f
12:50pm 5ft 11s 6s 13 16 mph 1025.3mb 59f 58f
11:50am 5.5ft 11s 6s 13 16 mph 1026.1mb 59f 58f
10:50am 6.5ft 10s 6s 13 16 mph 1026.9mb 59f 58f
9:50am 7ft 9s 6s 16 20 mph 1026.8mb 59f 58f
8:50am 7ft 11s 6s 18 22 mph 1025.6mb 58f 58f
7:50am 7.5ft 10s 6s 22 27 mph 1024.9mb 58f 57f
6:50am 7ft 11s 6s 20 25 mph 1024mb 58f 58f
5:50am 7ft 10s 6s 20 25 mph 1023.4mb 58f 58f
4:50am 7ft 11s 6s 20 22 mph 1023.1mb 59f 58f
3:50am 7ft 11s 6s 16 20 mph 1023.2mb 59f 59f
2:50am 7.5ft 13s 6s 18 22 mph 1022.6mb 59f 59f
1:50am 6ft 11s 6s 18 22 mph 1022.3mb 59f 58f
12:50am 6.5ft 11s 8s 16 18 mph 1022.5mb 58f 59f
Fri 12/26 11:50pm 7ft 11s 8s 9 11 mph 1022.4mb 58f 58f
10:50pm 7ft 11s 8s 7 9 mph 1022.4mb 58f 58f
9:50pm 7.5ft 11s 8s 4 9 mph 1022.1mb 58f 57f
8:50pm 7.5ft 10s 8s 7 9 mph 1021.4mb 58f 57f
7:50pm 7ft 12s 8s 7 9 mph 1020.9mb 58f 57f
6:50pm 6ft 10s 7s 9 11 mph 1020.6mb 59f 57f
5:50pm 7ft 13s 8s 9 13 mph 1019.8mb 59f 57f
4:50pm 7ft 12s 7s 11 13 mph 1019.1mb 59f 57f
3:50pm 8ft 11s 7s 11 13 mph 1018.8mb 59f 57f
2:50pm 8ft 14s 7s 9 13 mph 1018.6mb 59f 57f
1:50pm 9ft 10s 7s 9 11 mph 1018.3mb 59f 57f
12:50pm 10ft 11s 7s 7 11 mph 1018.4mb 59f 57f
11:50am 10ft 11s 7s 13 20 mph 1018.8mb 59f 58f
10:50am 10ft 11s 8s 4 9 mph 1019.6mb 59f 56f
9:50am 10.5ft 11s 8s 7 9 mph 1019.7mb 59f 56f
8:50am 10.5ft 11s 8s 11 16 mph 1018.7mb 59f 55f
7:50am 11ft 11s 8s 16 20 mph 1017.9mb 59f 56f
6:50am 10.5ft 11s 8s 18 22 mph 1017.5mb 59f 56f
5:50am 10.5ft 11s 8s 20 22 mph 1016.2mb 59f 56f
4:50am 11.5ft 12s 8s 20 25 mph 1015.6mb 59f 56f
3:50am 11.5ft 11s 8s 18 22 mph 1015.3mb 58f 56f
2:50am 12ft 12s 8s 20 25 mph 1015.2mb 58f 56f
1:50am 12ft 11s 8s 22 25 mph 1014.9mb 59f 56f
12:50am 12ft 12s 8s 22 27 mph 1014.6mb 59f 56f
Thu 12/25 11:50pm 13ft 13s 8s 25 29 mph 1014.4mb 59f 56f
10:50pm 14.5ft 11s 8s 27 34 mph 1014.7mb 59f 57f
9:50pm 15ft 12s 8s 31 38 mph 1014.3mb 59f 57f
8:50pm 14ft 11s 8s 27 34 mph 1014.6mb 59f 57f
7:50pm 14ft 12s 8s 27 29 mph 1014.1mb 59f 58f
6:50pm 13ft 12s 8s 22 29 mph 1014mb 59f 58f
5:50pm 13ft 12s 8s 27 31 mph 1013.2mb 59f 58f
4:50pm 14ft 12s 8s 27 31 mph 1012.7mb 59f 58f
3:50pm 14.5ft 14s 8s 29 34 mph 1011.9mb 59f 58f
2:50pm 14ft 11s 8s 29 36 mph 1011.7mb 60f 57f
1:50pm 14ft 11s 8s 25 31 mph 1012.1mb 60f 57f
12:50pm 16ft 12s 9s 29 36 mph 1011.9mb 60f 56f
11:50am 15ft 12s 8s 27 31 mph 1012.9mb 60f 56f